Red Dog, Alaska
Current Conditions -  °F | °C
As of 10:56 PM on Friday 19 Dec 2014 (Local Time) from PAWN Reporting Station
Clear Clear  
Wind Chill: -6°   Ceiling: Unl
Heat Index: -6°   Visibility: 10mi
Dew Point: -11°   Wind: 0mph
Humidity: 77%   Direction: NA
Pressure: 29.45"   Gusts: NA
Location:  68.03°N, 162.9°W
Report Text: PAWN 200756Z AUTO 00000KT 10SM CLR M21/M24 A2945 RMK AO1
Loading
Personal Weather Stations






























Interactive Weather Map New forecast layout! Learn more

10-Day Weather Forecast

Advertisements
Track Severe Weather on mobile